Time,TemperatureF,DewpointF,PressureIn,WindDirection,WindDirectionDegrees,WindSpeedMPH,WindSpeedGustMPH,Humidity,HourlyPrecipIn,Conditions,Clouds,dailyrainin,SoftwareType,DateUTC
2013-07-19 00:00:00,79.2,-29.7,29.97,East,98,0.0,4.0,1,0.00,,,0.00,Wunderground v.1.15,2013-07-19 05:00:00,
2013-07-19 00:05:00,79.1,-29.7,29.97,ESE,117,0.0,4.0,1,0.00,,,0.00,Wunderground v.1.15,2013-07-19 05:05:00,
2013-07-19 00:10:00,79.1,-29.7,29.97,ESE,113,0.0,4.0,1,0.00,,,0.00,Wunderground v.1.15,2013-07-19 05:10:00,
2013-07-19 00:15:00,79.1,-29.7,29.97,ESE,104,0.0,4.0,1,0.00,,,0.00,Wunderground v.1.15,2013-07-19 05:15:00,
2013-07-19 00:19:00,79.2,-29.7,29.97,East,99,1.0,1.0,1,0.00,,,0.00,Wunderground v.1.15,2013-07-19 05:19:00,
2013-07-19 00:29:00,79.2,-29.7,29.97,SE,133,0.0,4.0,1,0.00,,,0.00,Wunderground v.1.15,2013-07-19 05:29:00,
2013-07-19 00:34:00,79.1,-29.7,29.97,East,96,1.0,4.0,1,0.00,,,0.00,Wunderground v.1.15,2013-07-19 05:34:00,
2013-07-19 00:39:00,79.1,-29.7,29.97,ESE,111,1.0,4.0,1,0.00,,,0.00,Wunderground v.1.15,2013-07-19 05:39:00,
2013-07-19 00:44:00,79.0,-29.8,29.97,ESE,121,1.0,4.0,1,0.00,,,0.00,Wunderground v.1.15,2013-07-19 05:44:00,
2013-07-19 00:54:00,78.8,-29.9,29.97,SW,226,0.0,4.0,1,0.00,,,0.00,Wunderground v.1.15,2013-07-19 05:54:00,
2013-07-19 01:00:00,78.7,-30.0,29.97,SE,130,0.0,4.0,1,0.00,,,0.00,Wunderground v.1.15,2013-07-19 06:00:00,
2013-07-19 01:05:00,78.5,-30.1,29.97,SE,124,0.0,4.0,1,0.00,,,0.00,Wunderground v.1.15,2013-07-19 06:05:00,
2013-07-19 01:10:00,78.3,-30.2,29.97,ESE,103,0.0,4.0,1,0.00,,,0.00,Wunderground v.1.15,2013-07-19 06:10:00,
2013-07-19 01:15:00,78.1,-30.3,29.97,SSW,211,0.0,4.0,1,0.00,,,0.00,Wunderground v.1.15,2013-07-19 06:15:00,
2013-07-19 01:19:00,77.8,-30.5,29.97,SSW,210,0.0,4.0,1,0.00,,,0.00,Wunderground v.1.15,2013-07-19 06:19:00,
2013-07-19 01:29:00,77.4,-30.7,29.97,SSW,197,0.0,4.0,1,0.00,,,0.00,Wunderground v.1.15,2013-07-19 06:29:00,
2013-07-19 01:34:00,77.2,-30.9,29.97,SE,146,0.0,4.0,1,0.00,,,0.00,Wunderground v.1.15,2013-07-19 06:34:00,
2013-07-19 01:39:00,77.1,-30.9,29.96,SE,146,0.0,4.0,1,0.00,,,0.00,Wunderground v.1.15,2013-07-19 06:39:00,
2013-07-19 01:44:00,76.9,-31.0,29.96,SSE,147,0.0,4.0,1,0.00,,,0.00,Wunderground v.1.15,2013-07-19 06:44:00,
2013-07-19 01:49:00,76.6,-31.2,29.96,East,85,0.0,4.0,1,0.00,,,0.00,Wunderground v.1.15,2013-07-19 06:49:00,
2013-07-19 01:54:00,76.5,-31.3,29.96,East,85,0.0,4.0,1,0.00,,,0.00,Wunderground v.1.15,2013-07-19 06:54:00,
2013-07-19 02:00:00,76.3,-31.4,29.96,East,84,0.0,4.0,1,0.00,,,0.00,Wunderground v.1.15,2013-07-19 07:00:00,
2013-07-19 02:05:00,76.1,-31.5,29.96,East,84,0.0,4.0,1,0.00,,,0.00,Wunderground v.1.15,2013-07-19 07:05:00,
2013-07-19 02:10:00,75.8,-31.7,29.96,East,85,0.0,4.0,1,0.00,,,0.00,Wunderground v.1.15,2013-07-19 07:10:00,
2013-07-19 02:15:00,75.5,-31.9,29.96,SSE,152,0.0,4.0,1,0.00,,,0.00,Wunderground v.1.15,2013-07-19 07:15:00,
2013-07-19 02:19:00,75.2,-32.1,29.97,SSE,162,0.0,4.0,1,0.00,,,0.00,Wunderground v.1.15,2013-07-19 07:19:00,
2013-07-19 02:29:00,75.3,-32.0,29.96,East,85,0.0,4.0,1,0.00,,,0.00,Wunderground v.1.15,2013-07-19 07:29:00,
2013-07-19 02:34:00,75.1,-32.1,29.96,East,85,0.0,4.0,1,0.00,,,0.00,Wunderground v.1.15,2013-07-19 07:34:00,
2013-07-19 02:39:00,74.9,-32.2,29.96,East,85,0.0,4.0,1,0.00,,,0.00,Wunderground v.1.15,2013-07-19 07:39:00,
2013-07-19 02:44:00,74.7,-32.4,29.96,East,89,0.0,4.0,1,0.00,,,0.00,Wunderground v.1.15,2013-07-19 07:44:00,
2013-07-19 02:54:00,74.6,-32.4,29.96,East,92,0.0,4.0,1,0.00,,,0.00,Wunderground v.1.15,2013-07-19 07:54:00,
2013-07-19 03:00:00,74.5,-32.5,29.96,East,91,0.0,4.0,1,0.00,,,0.00,Wunderground v.1.15,2013-07-19 08:00:00,
2013-07-19 03:05:00,74.2,-32.7,29.96,East,92,0.0,4.0,1,0.00,,,0.00,Wunderground v.1.15,2013-07-19 08:05:00,
2013-07-19 03:10:00,73.8,-32.9,29.96,East,91,0.0,4.0,1,0.00,,,0.00,Wunderground v.1.15,2013-07-19 08:10:00,
2013-07-19 03:15:00,73.7,-33.0,29.96,East,86,0.0,4.0,1,0.00,,,0.00,Wunderground v.1.15,2013-07-19 08:15:00,
2013-07-19 03:19:00,73.9,-32.9,29.95,East,101,0.0,4.0,1,0.00,,,0.00,Wunderground v.1.15,2013-07-19 08:19:00,
2013-07-19 03:24:00,74.1,-32.7,29.95,ESE,107,0.0,4.0,1,0.00,,,0.00,Wunderground v.1.15,2013-07-19 08:24:00,
2013-07-19 03:34:00,74.2,-32.7,29.95,ESE,104,0.0,4.0,1,0.00,,,0.00,Wunderground v.1.15,2013-07-19 08:34:00,
2013-07-19 03:39:00,74.2,-32.7,29.95,ESE,104,0.0,4.0,1,0.00,,,0.00,Wunderground v.1.15,2013-07-19 08:39:00,
2013-07-19 03:44:00,74.1,-32.7,29.95,ESE,103,0.0,4.0,1,0.00,,,0.00,Wunderground v.1.15,2013-07-19 08:44:00,
2013-07-19 03:49:00,74.2,-32.7,29.95,ESE,104,0.0,4.0,1,0.00,,,0.00,Wunderground v.1.15,2013-07-19 08:49:00,
2013-07-19 03:54:00,74.1,-32.7,29.95,ESE,107,0.0,4.0,1,0.00,,,0.00,Wunderground v.1.15,2013-07-19 08:54:00,
2013-07-19 03:59:00,74.0,-32.8,29.95,ESE,112,0.0,4.0,1,0.00,,,0.00,Wunderground v.1.15,2013-07-19 08:59:00,
2013-07-19 04:05:00,74.0,-32.8,29.95,ESE,107,0.0,4.0,1,0.00,,,0.00,Wunderground v.1.15,2013-07-19 09:05:00,
2013-07-19 04:10:00,74.1,-32.7,29.95,ESE,104,0.0,4.0,1,0.00,,,0.00,Wunderground v.1.15,2013-07-19 09:10:00,
2013-07-19 04:19:00,74.3,-32.6,29.95,ESE,104,0.0,4.0,1,0.00,,,0.00,Wunderground v.1.15,2013-07-19 09:19:00,
2013-07-19 04:24:00,74.4,-32.6,29.95,SE,124,0.0,4.0,1,0.00,,,0.00,Wunderground v.1.15,2013-07-19 09:24:00,
2013-07-19 04:29:00,74.4,-32.6,29.94,SE,127,0.0,4.0,1,0.00,,,0.00,Wunderground v.1.15,2013-07-19 09:29:00,
2013-07-19 04:39:00,74.3,-32.6,29.94,ENE,78,0.0,4.0,1,0.00,,,0.00,Wunderground v.1.15,2013-07-19 09:39:00,
2013-07-19 04:44:00,74.2,-32.7,29.94,SE,139,0.0,4.0,1,0.00,,,0.00,Wunderground v.1.15,2013-07-19 09:44:00,
2013-07-19 04:54:00,74.3,-32.6,29.94,East,86,0.0,4.0,1,0.00,,,0.00,Wunderground v.1.15,2013-07-19 09:54:00,
2013-07-19 04:59:00,74.3,-32.6,29.94,ENE,73,0.0,4.0,1,0.00,,,0.00,Wunderground v.1.15,2013-07-19 09:59:00,
2013-07-19 05:05:00,74.2,-32.7,29.94,ESE,115,0.0,4.0,1,0.00,,,0.00,Wunderground v.1.15,2013-07-19 10:05:00,
2013-07-19 05:10:00,74.0,-32.8,29.95,SSW,208,0.0,4.0,1,0.00,,,0.00,Wunderground v.1.15,2013-07-19 10:10:00,
2013-07-19 05:15:00,73.9,-32.9,29.95,East,89,0.0,4.0,1,0.00,,,0.00,Wunderground v.1.15,2013-07-19 10:15:00,
2013-07-19 05:19:00,73.8,-32.9,29.95,East,89,0.0,4.0,1,0.00,,,0.00,Wunderground v.1.15,2013-07-19 10:19:00,
2013-07-19 05:24:00,73.6,-33.0,29.95,ENE,78,0.0,4.0,1,0.00,,,0.00,Wunderground v.1.15,2013-07-19 10:24:00,
2013-07-19 05:29:00,73.5,-33.1,29.94,East,100,0.0,4.0,1,0.00,,,0.00,Wunderground v.1.15,2013-07-19 10:29:00,
2013-07-19 05:39:00,73.5,-33.1,29.95,ESE,117,0.0,4.0,1,0.00,,,0.00,Wunderground v.1.15,2013-07-19 10:39:00,
2013-07-19 05:44:00,73.6,-33.0,29.95,ESE,114,0.0,4.0,1,0.00,,,0.00,Wunderground v.1.15,2013-07-19 10:44:00,
2013-07-19 05:49:00,73.4,-33.2,29.95,South,177,0.0,4.0,1,0.00,,,0.00,Wunderground v.1.15,2013-07-19 10:49:00,
2013-07-19 05:59:00,73.5,-33.1,29.95,ESE,110,0.0,4.0,1,0.00,,,0.00,Wunderground v.1.15,2013-07-19 10:59:00,
2013-07-19 06:04:00,73.4,-33.2,29.95,South,181,0.0,4.0,1,0.00,,,0.00,Wunderground v.1.15,2013-07-19 11:04:00,
2013-07-19 06:10:00,73.4,-33.2,29.95,ENE,71,0.0,4.0,1,0.00,,,0.00,Wunderground v.1.15,2013-07-19 11:10:00,
2013-07-19 06:15:00,73.4,-33.2,29.95,SSW,197,0.0,4.0,1,0.00,,,0.00,Wunderground v.1.15,2013-07-19 11:15:00,
2013-07-19 06:19:00,73.3,-33.2,29.95,ENE,77,0.0,4.0,1,0.00,,,0.00,Wunderground v.1.15,2013-07-19 11:19:00,
2013-07-19 06:24:00,73.3,-33.2,29.95,East,93,0.0,4.0,1,0.00,,,0.00,Wunderground v.1.15,2013-07-19 11:24:00,
2013-07-19 06:29:00,73.2,-33.3,29.95,ESE,107,0.0,4.0,1,0.00,,,0.00,Wunderground v.1.15,2013-07-19 11:29:00,
2013-07-19 06:34:00,73.2,-33.3,29.95,ESE,107,0.0,4.0,1,0.00,,,0.00,Wunderground v.1.15,2013-07-19 11:34:00,
2013-07-19 06:44:00,73.7,-33.0,29.95,ESE,117,0.0,4.0,1,0.00,,,0.00,Wunderground v.1.15,2013-07-19 11:44:00,
2013-07-19 06:49:00,74.2,-32.7,29.95,ESE,117,0.0,4.0,1,0.00,,,0.00,Wunderground v.1.15,2013-07-19 11:49:00,
2013-07-19 06:54:00,74.6,-32.4,29.95,ESE,117,0.0,4.0,1,0.00,,,0.00,Wunderground v.1.15,2013-07-19 11:54:00,
2013-07-19 06:59:00,74.9,-32.2,29.95,ESE,102,0.0,4.0,1,0.00,,,0.00,Wunderground v.1.15,2013-07-19 11:59:00,
2013-07-19 07:04:00,75.5,-31.9,29.96,SE,129,0.0,4.0,1,0.00,,,0.00,Wunderground v.1.15,2013-07-19 12:04:00,
2013-07-19 07:10:00,76.1,-31.5,29.96,ESE,114,0.0,4.0,1,0.00,,,0.00,Wunderground v.1.15,2013-07-19 12:10:00,
2013-07-19 07:15:00,76.7,-31.2,29.96,SSE,156,0.0,4.0,1,0.00,,,0.00,Wunderground v.1.15,2013-07-19 12:15:00,
2013-07-19 07:19:00,77.3,-30.8,29.96,SSW,210,0.0,4.0,1,0.00,,,0.00,Wunderground v.1.15,2013-07-19 12:19:00,
2013-07-19 07:24:00,77.8,-30.5,29.96,East,94,0.0,4.0,1,0.00,,,0.00,Wunderground v.1.15,2013-07-19 12:24:00,
2013-07-19 07:29:00,78.0,-30.4,29.96,ESE,103,0.0,4.0,1,0.00,,,0.00,Wunderground v.1.15,2013-07-19 12:29:00,
2013-07-19 07:34:00,78.5,-30.1,29.96,SE,127,0.0,4.0,1,0.00,,,0.00,Wunderground v.1.15,2013-07-19 12:34:00,
2013-07-19 07:44:00,78.5,-30.1,29.97,ESE,104,0.0,4.0,1,0.00,,,0.00,Wunderground v.1.15,2013-07-19 12:44:00,
2013-07-19 07:49:00,78.3,-30.2,29.97,SSE,163,0.0,4.0,1,0.00,,,0.00,Wunderground v.1.15,2013-07-19 12:49:00,
2013-07-19 07:54:00,78.5,-30.1,29.97,East,79,0.0,4.0,1,0.00,,,0.00,Wunderground v.1.15,2013-07-19 12:54:00,
2013-07-19 07:59:00,78.5,-30.1,29.97,ESE,117,0.0,4.0,1,0.00,,,0.00,Wunderground v.1.15,2013-07-19 12:59:00,
2013-07-19 08:09:00,78.9,-29.8,29.97,SE,124,0.0,4.0,1,0.00,,,0.00,Wunderground v.1.15,2013-07-19 13:09:00,
2013-07-19 08:15:00,79.2,-29.7,29.97,NE,51,0.0,4.0,1,0.00,,,0.00,Wunderground v.1.15,2013-07-19 13:15:00,
2013-07-19 08:24:00,80.0,-29.2,29.97,East,101,0.0,4.0,1,0.00,,,0.00,Wunderground v.1.15,2013-07-19 13:24:00,
2013-07-19 08:29:00,80.3,-29.0,29.97,South,172,0.0,4.0,1,0.00,,,0.00,Wunderground v.1.15,2013-07-19 13:29:00,
2013-07-19 08:34:00,80.4,-28.9,29.97,SW,215,0.0,4.0,1,0.00,,,0.00,Wunderground v.1.15,2013-07-19 13:34:00,
2013-07-19 08:39:00,81.0,-28.6,29.97,SE,146,0.0,4.0,1,0.00,,,0.00,Wunderground v.1.15,2013-07-19 13:39:00,
2013-07-19 08:49:00,81.6,-28.2,29.98,East,101,0.0,4.0,1,0.00,,,0.00,Wunderground v.1.15,2013-07-19 13:49:00,
2013-07-19 08:54:00,81.6,-28.2,29.97,East,84,0.0,4.0,1,0.00,,,0.00,Wunderground v.1.15,2013-07-19 13:54:00,
2013-07-19 08:59:00,81.8,-28.1,29.97,East,99,0.0,4.0,1,0.00,,,0.00,Wunderground v.1.15,2013-07-19 13:59:00,
2013-07-19 09:04:00,82.4,-27.7,29.97,South,169,0.0,4.0,1,0.00,,,0.00,Wunderground v.1.15,2013-07-19 14:04:00,
2013-07-19 09:09:00,82.8,-27.5,29.97,ESE,108,1.0,1.0,1,0.00,,,0.00,Wunderground v.1.15,2013-07-19 14:09:00,
2013-07-19 09:15:00,82.7,-27.6,29.97,ESE,114,1.0,4.0,1,0.00,,,0.00,Wunderground v.1.15,2013-07-19 14:15:00,
2013-07-19 09:19:00,83.2,-27.3,29.97,SSE,156,1.0,1.0,1,0.00,,,0.00,Wunderground v.1.15,2013-07-19 14:19:00,
2013-07-19 09:24:00,83.5,-27.1,29.97,SSE,155,0.0,4.0,1,0.00,,,0.00,Wunderground v.1.15,2013-07-19 14:24:00,
2013-07-19 09:29:00,83.7,-27.0,29.97,ESE,102,1.0,1.0,1,0.00,,,0.00,Wunderground v.1.15,2013-07-19 14:29:00,
2013-07-19 09:34:00,84.4,-26.5,29.97,SE,139,0.0,4.0,1,0.00,,,0.00,Wunderground v.1.15,2013-07-19 14:34:00,
2013-07-19 09:39:00,85.2,-26.1,29.97,East,86,0.0,4.0,1,0.00,,,0.00,Wunderground v.1.15,2013-07-19 14:39:00,
2013-07-19 09:49:00,86.1,-25.5,29.96,South,191,0.0,4.0,1,0.00,,,0.00,Wunderground v.1.15,2013-07-19 14:49:00,
2013-07-19 09:54:00,86.8,-25.1,29.96,SE,135,0.0,4.0,1,0.00,,,0.00,Wunderground v.1.15,2013-07-19 14:54:00,
2013-07-19 09:59:00,86.8,-25.1,29.96,WSW,242,1.0,1.0,1,0.00,,,0.00,Wunderground v.1.15,2013-07-19 14:59:00,
2013-07-19 10:09:00,87.9,32.7,29.96,South,172,0.0,4.0,14,0.00,,,0.00,Wunderground v.1.15,2013-07-19 15:09:00,
2013-07-19 10:14:00,88.7,31.5,29.96,SSW,198,0.0,4.0,13,0.00,,,0.00,Wunderground v.1.15,2013-07-19 15:14:00,
2013-07-19 10:19:00,89.7,40.6,29.96,South,169,1.0,1.0,18,0.00,,,0.00,Wunderground v.1.15,2013-07-19 15:19:00,
2013-07-19 10:29:00,90.4,53.8,29.96,West,277,1.0,1.0,29,0.00,,,0.00,Wunderground v.1.15,2013-07-19 15:29:00,
2013-07-19 10:34:00,90.4,56.5,29.96,ESE,115,1.0,4.0,32,0.00,,,0.00,Wunderground v.1.15,2013-07-19 15:34:00,
2013-07-19 10:39:00,90.8,50.1,29.96,SSW,208,0.0,4.0,25,0.00,,,0.00,Wunderground v.1.15,2013-07-19 15:39:00,
2013-07-19 10:44:00,90.8,60.2,29.96,SSW,201,1.0,4.0,36,0.00,,,0.00,Wunderground v.1.15,2013-07-19 15:44:00,
2013-07-19 10:54:00,90.3,52.8,29.96,East,80,2.0,4.0,28,0.00,,,0.00,Wunderground v.1.15,2013-07-19 15:54:00,
2013-07-19 10:59:00,90.9,55.2,29.95,SW,233,1.0,1.0,30,0.00,,,0.00,Wunderground v.1.15,2013-07-19 15:59:00,
2013-07-19 11:04:00,91.4,57.4,29.96,SW,231,1.0,4.0,32,0.00,,,0.00,Wunderground v.1.15,2013-07-19 16:04:00,
2013-07-19 11:09:00,91.4,63.7,29.96,ESE,105,1.0,1.0,40,0.00,,,0.00,Wunderground v.1.15,2013-07-19 16:09:00,
2013-07-19 11:15:00,91.4,61.5,29.96,SW,226,1.0,3.0,37,0.00,,,0.00,Wunderground v.1.15,2013-07-19 16:15:00,
2013-07-19 11:24:00,92.1,62.8,29.96,ESE,114,1.0,4.0,38,0.00,,,0.00,Wunderground v.1.15,2013-07-19 16:24:00,
2013-07-19 11:29:00,92.1,63.6,29.95,WSW,256,1.0,4.0,39,0.00,,,0.00,Wunderground v.1.15,2013-07-19 16:29:00,
2013-07-19 11:34:00,92.2,60.6,29.95,West,267,1.0,4.0,35,0.00,,,0.00,Wunderground v.1.15,2013-07-19 16:34:00,
2013-07-19 11:39:00,92.2,66.5,29.95,West,262,2.0,2.0,43,0.00,,,0.00,Wunderground v.1.15,2013-07-19 16:39:00,
2013-07-19 11:44:00,92.3,66.6,29.95,SW,231,2.0,4.0,43,0.00,,,0.00,Wunderground v.1.15,2013-07-19 16:44:00,
2013-07-19 11:54:00,92.8,65.6,29.95,West,277,1.0,4.0,41,0.00,,,0.00,Wunderground v.1.15,2013-07-19 16:54:00,
2013-07-19 11:59:00,93.2,67.4,29.94,West,267,1.0,4.0,43,0.00,,,0.00,Wunderground v.1.15,2013-07-19 16:59:00,
2013-07-19 12:04:00,93.3,67.5,29.94,SSE,149,1.0,4.0,43,0.00,,,0.00,Wunderground v.1.15,2013-07-19 17:04:00,
2013-07-19 12:15:00,93.4,68.9,29.93,NNE,15,0.0,4.0,45,0.00,,,0.00,Wunderground v.1.15,2013-07-19 17:15:00,
2013-07-19 12:24:00,93.5,65.6,29.93,WSW,239,0.0,4.0,40,0.00,,,0.00,Wunderground v.1.15,2013-07-19 17:24:00,
2013-07-19 12:29:00,94.3,63.2,29.93,East,82,0.0,4.0,36,0.00,,,0.00,Wunderground v.1.15,2013-07-19 17:29:00,
2013-07-19 12:34:00,94.1,67.5,29.92,ESE,122,1.0,4.0,42,0.00,,,0.00,Wunderground v.1.15,2013-07-19 17:34:00,
2013-07-19 12:39:00,94.7,68.7,29.92,South,184,0.0,4.0,43,0.00,,,0.00,Wunderground v.1.15,2013-07-19 17:39:00,
2013-07-19 12:44:00,95.5,70.8,29.92,ESE,105,0.0,4.0,45,0.00,,,0.00,Wunderground v.1.15,2013-07-19 17:44:00,
2013-07-19 12:49:00,95.7,71.6,29.92,SE,134,0.0,4.0,46,0.00,,,0.00,Wunderground v.1.15,2013-07-19 17:49:00,
2013-07-19 12:59:00,95.4,71.3,29.92,West,269,0.0,4.0,46,0.00,,,0.00,Wunderground v.1.15,2013-07-19 17:59:00,
2013-07-19 13:04:00,95.0,71.0,29.91,WNW,301,0.0,4.0,46,0.00,,,0.00,Wunderground v.1.15,2013-07-19 18:04:00,
2013-07-19 13:09:00,94.5,70.5,29.91,East,83,0.0,4.0,46,0.00,,,0.00,Wunderground v.1.15,2013-07-19 18:09:00,
2013-07-19 13:15:00,93.7,69.8,29.91,SSW,203,0.0,4.0,46,0.00,,,0.00,Wunderground v.1.15,2013-07-19 18:15:00,
2013-07-19 13:20:00,94.1,69.5,29.91,East,89,0.0,4.0,45,0.00,,,0.00,Wunderground v.1.15,2013-07-19 18:20:00,
2013-07-19 13:29:00,94.8,70.1,29.91,SE,143,0.0,4.0,45,0.00,,,0.00,Wunderground v.1.15,2013-07-19 18:29:00,
2013-07-19 13:34:00,95.0,71.0,29.90,WSW,257,0.0,4.0,46,0.00,,,0.00,Wunderground v.1.15,2013-07-19 18:34:00,
2013-07-19 13:44:00,96.5,73.0,29.90,SE,146,0.0,4.0,47,0.00,,,0.00,Wunderground v.1.15,2013-07-19 18:44:00,
2013-07-19 13:49:00,97.2,73.0,29.89,ESE,109,0.0,4.0,46,0.00,,,0.00,Wunderground v.1.15,2013-07-19 18:49:00,
2013-07-19 13:59:00,97.3,73.1,29.89,SW,226,1.0,4.0,46,0.00,,,0.00,Wunderground v.1.15,2013-07-19 18:59:00,
2013-07-19 14:04:00,97.6,72.7,29.89,SSE,159,0.0,4.0,45,0.00,,,0.00,Wunderground v.1.15,2013-07-19 19:04:00,
2013-07-19 14:09:00,97.3,72.4,29.88,North,349,0.0,4.0,45,0.00,,,0.00,Wunderground v.1.15,2013-07-19 19:09:00,
2013-07-19 14:15:00,97.2,72.3,29.88,West,272,0.0,4.0,45,0.00,,,0.00,Wunderground v.1.15,2013-07-19 19:15:00,
2013-07-19 14:20:00,95.9,71.8,29.88,West,260,0.0,4.0,46,0.00,,,0.00,Wunderground v.1.15,2013-07-19 19:20:00,
2013-07-19 14:29:00,95.8,71.7,29.87,West,264,0.0,4.0,46,0.00,,,0.00,Wunderground v.1.15,2013-07-19 19:29:00,
2013-07-19 14:34:00,96.2,71.4,29.87,ESE,104,0.0,4.0,45,0.00,,,0.00,Wunderground v.1.15,2013-07-19 19:34:00,
2013-07-19 14:39:00,96.3,71.5,29.87,SSW,204,0.0,4.0,45,0.00,,,0.00,Wunderground v.1.15,2013-07-19 19:39:00,
2013-07-19 14:44:00,96.8,72.0,29.87,WSW,241,0.0,4.0,45,0.00,,,0.00,Wunderground v.1.15,2013-07-19 19:44:00,
2013-07-19 14:54:00,96.1,71.3,29.86,South,191,0.0,4.0,45,0.00,,,0.00,Wunderground v.1.15,2013-07-19 19:54:00,
2013-07-19 15:04:00,96.4,72.2,29.86,SW,225,0.0,4.0,46,0.00,,,0.00,Wunderground v.1.15,2013-07-19 20:04:00,
2013-07-19 15:10:00,96.9,72.0,29.85,NE,44,0.0,4.0,45,0.00,,,0.00,Wunderground v.1.15,2013-07-19 20:10:00,
2013-07-19 15:15:00,96.8,72.0,29.85,WSW,246,0.0,4.0,45,0.00,,,0.00,Wunderground v.1.15,2013-07-19 20:15:00,
2013-07-19 15:20:00,96.9,72.7,29.85,ESE,111,0.0,4.0,46,0.00,,,0.00,Wunderground v.1.15,2013-07-19 20:20:00,
2013-07-19 15:29:00,97.7,72.1,29.85,West,264,0.0,4.0,44,0.00,,,0.00,Wunderground v.1.15,2013-07-19 20:29:00,
2013-07-19 15:39:00,97.8,72.9,29.85,ESE,109,0.0,4.0,45,0.00,,,0.00,Wunderground v.1.15,2013-07-19 20:39:00,
2013-07-19 15:44:00,96.5,71.0,29.85,ESE,104,0.0,4.0,44,0.00,,,0.00,Wunderground v.1.15,2013-07-19 20:44:00,
2013-07-19 15:49:00,95.9,71.8,29.85,ENE,69,0.0,4.0,46,0.00,,,0.00,Wunderground v.1.15,2013-07-19 20:49:00,
2013-07-19 15:54:00,96.2,72.1,29.85,North,360,0.0,4.0,46,0.00,,,0.00,Wunderground v.1.15,2013-07-19 20:54:00,
2013-07-19 16:05:00,97.6,72.7,29.85,SSW,205,0.0,4.0,45,0.00,,,0.00,Wunderground v.1.15,2013-07-19 21:05:00,
2013-07-19 16:10:00,97.3,71.7,29.85,ESE,104,0.0,4.0,44,0.00,,,0.00,Wunderground v.1.15,2013-07-19 21:10:00,
2013-07-19 16:15:00,97.2,72.3,29.84,SSE,167,0.0,4.0,45,0.00,,,0.00,Wunderground v.1.15,2013-07-19 21:15:00,
2013-07-19 16:20:00,97.7,72.8,29.84,WSW,252,0.0,4.0,45,0.00,,,0.00,Wunderground v.1.15,2013-07-19 21:20:00,
2013-07-19 16:24:00,97.5,72.6,29.84,ESE,109,0.0,4.0,45,0.00,,,0.00,Wunderground v.1.15,2013-07-19 21:24:00,
2013-07-19 16:34:00,97.1,71.6,29.84,South,183,0.0,4.0,44,0.00,,,0.00,Wunderground v.1.15,2013-07-19 21:34:00,
2013-07-19 16:39:00,97.1,72.9,29.84,East,82,0.0,4.0,46,0.00,,,0.00,Wunderground v.1.15,2013-07-19 21:39:00,
2013-07-19 16:44:00,97.4,71.8,29.84,SW,236,0.0,4.0,44,0.00,,,0.00,Wunderground v.1.15,2013-07-19 21:44:00,
2013-07-19 16:49:00,97.5,71.9,29.83,South,169,0.0,4.0,44,0.00,,,0.00,Wunderground v.1.15,2013-07-19 21:49:00,
2013-07-19 16:54:00,97.4,71.2,29.83,ESE,104,1.0,4.0,43,0.00,,,0.00,Wunderground v.1.15,2013-07-19 21:54:00,
2013-07-19 16:59:00,96.8,72.0,29.83,East,95,1.0,1.0,45,0.00,,,0.00,Wunderground v.1.15,2013-07-19 21:59:00,
2013-07-19 17:05:00,97.0,72.1,29.83,SW,214,0.0,4.0,45,0.00,,,0.00,Wunderground v.1.15,2013-07-19 22:05:00,
2013-07-19 17:10:00,97.4,71.8,29.83,WSW,253,0.0,4.0,44,0.00,,,0.00,Wunderground v.1.15,2013-07-19 22:10:00,
2013-07-19 17:15:00,97.6,72.0,29.83,SSW,212,0.0,4.0,44,0.00,,,0.00,Wunderground v.1.15,2013-07-19 22:15:00,
2013-07-19 17:25:00,97.2,71.0,29.83,ENE,70,1.0,4.0,43,0.00,,,0.00,Wunderground v.1.15,2013-07-19 22:25:00,
2013-07-19 17:30:00,96.9,72.0,29.83,SSW,195,1.0,1.0,45,0.00,,,0.00,Wunderground v.1.15,2013-07-19 22:30:00,
2013-07-19 17:39:00,96.5,71.7,29.83,NW,314,0.0,4.0,45,0.00,,,0.00,Wunderground v.1.15,2013-07-19 22:39:00,
2013-07-19 17:44:00,96.4,72.2,29.83,SE,137,1.0,4.0,46,0.00,,,0.00,Wunderground v.1.15,2013-07-19 22:44:00,
2013-07-19 17:49:00,96.6,72.4,29.83,SSW,212,0.0,4.0,46,0.00,,,0.00,Wunderground v.1.15,2013-07-19 22:49:00,
2013-07-19 17:54:00,96.5,71.0,29.82,WSW,239,0.0,4.0,44,0.00,,,0.00,Wunderground v.1.15,2013-07-19 22:54:00,
2013-07-19 17:59:00,96.1,71.3,29.82,SSW,206,0.0,4.0,45,0.00,,,0.00,Wunderground v.1.15,2013-07-19 22:59:00,
2013-07-19 18:09:00,96.3,72.2,29.82,South,177,0.0,4.0,46,0.00,,,0.00,Wunderground v.1.15,2013-07-19 23:09:00,
2013-07-19 18:15:00,96.9,72.7,29.82,South,169,0.0,4.0,46,0.00,,,0.00,Wunderground v.1.15,2013-07-19 23:15:00,
2013-07-19 18:20:00,96.9,72.0,29.82,SE,134,0.0,4.0,45,0.00,,,0.00,Wunderground v.1.15,2013-07-19 23:20:00,
2013-07-19 18:25:00,96.9,72.7,29.82,SW,224,0.0,4.0,46,0.00,,,0.00,Wunderground v.1.15,2013-07-19 23:25:00,
2013-07-19 18:30:00,96.9,72.0,29.82,SE,136,0.0,4.0,45,0.00,,,0.00,Wunderground v.1.15,2013-07-19 23:30:00,
2013-07-19 18:39:00,95.3,71.2,29.82,NE,37,2.0,6.0,46,0.00,,,0.00,Wunderground v.1.15,2013-07-19 23:39:00,
2013-07-19 18:44:00,93.6,69.1,29.82,SE,130,3.0,6.0,45,0.00,,,0.00,Wunderground v.1.15,2013-07-19 23:44:00,
2013-07-19 18:49:00,92.7,68.2,29.82,East,96,2.0,2.0,45,0.00,,,0.00,Wunderground v.1.15,2013-07-19 23:49:00,
2013-07-19 18:54:00,92.1,66.4,29.82,NNE,12,1.0,5.0,43,0.00,,,0.00,Wunderground v.1.15,2013-07-19 23:54:00,
2013-07-19 19:04:00,90.4,61.3,29.82,ENE,75,2.0,4.0,38,0.00,,,0.00,Wunderground v.1.15,2013-07-20 00:04:00,
2013-07-19 19:10:00,89.6,60.6,29.83,SSE,162,2.0,2.0,38,0.00,,,0.00,Wunderground v.1.15,2013-07-20 00:10:00,
2013-07-19 19:15:00,88.9,57.7,29.83,SSE,151,2.0,4.0,35,0.00,,,0.00,Wunderground v.1.15,2013-07-20 00:15:00,
2013-07-19 19:20:00,88.3,55.6,29.83,East,86,2.0,4.0,33,0.00,,,0.00,Wunderground v.1.15,2013-07-20 00:20:00,
2013-07-19 19:29:00,87.2,49.1,29.83,NE,47,2.0,2.0,27,0.00,,,0.00,Wunderground v.1.15,2013-07-20 00:29:00,
2013-07-19 19:39:00,86.3,41.8,29.83,NE,56,1.0,1.0,21,0.00,,,0.00,Wunderground v.1.15,2013-07-20 00:39:00,
2013-07-19 19:44:00,85.9,37.5,29.83,NE,34,1.0,4.0,18,0.00,,,0.00,Wunderground v.1.15,2013-07-20 00:44:00,
2013-07-19 19:49:00,85.5,30.8,29.83,NE,43,1.0,1.0,14,0.00,,,0.00,Wunderground v.1.15,2013-07-20 00:49:00,
2013-07-19 19:54:00,85.1,24.7,29.83,ENE,57,0.0,4.0,11,0.00,,,0.00,Wunderground v.1.15,2013-07-20 00:54:00,
2013-07-19 19:59:00,84.9,19.7,29.83,NE,42,0.0,4.0,9,0.00,,,0.00,Wunderground v.1.15,2013-07-20 00:59:00,
2013-07-19 20:10:00,84.4,-13.2,29.83,ENE,59,0.0,4.0,2,0.00,,,0.00,Wunderground v.1.15,2013-07-20 01:10:00,
2013-07-19 20:15:00,84.2,-5.0,29.83,East,81,0.0,4.0,3,0.00,,,0.00,Wunderground v.1.15,2013-07-20 01:15:00,
2013-07-19 20:20:00,84.0,-26.8,29.84,ESE,105,0.0,4.0,1,0.00,,,0.00,Wunderground v.1.15,2013-07-20 01:20:00,
2013-07-19 20:29:00,83.7,-27.0,29.83,East,98,0.0,4.0,1,0.00,,,0.00,Wunderground v.1.15,2013-07-20 01:29:00,
2013-07-19 20:34:00,83.5,-27.1,29.84,East,79,0.0,4.0,1,0.00,,,0.00,Wunderground v.1.15,2013-07-20 01:34:00,
2013-07-19 20:44:00,83.0,-27.4,29.84,ENE,73,0.0,4.0,1,0.00,,,0.00,Wunderground v.1.15,2013-07-20 01:44:00,
2013-07-19 20:49:00,82.8,-27.5,29.84,ENE,76,0.0,4.0,1,0.00,,,0.00,Wunderground v.1.15,2013-07-20 01:49:00,
2013-07-19 20:54:00,82.4,-27.7,29.84,SE,141,0.0,4.0,1,0.00,,,0.00,Wunderground v.1.15,2013-07-20 01:54:00,
2013-07-19 21:04:00,81.7,-28.2,29.84,ESE,111,0.0,4.0,1,0.00,,,0.00,Wunderground v.1.15,2013-07-20 02:04:00,
2013-07-19 21:09:00,81.4,-28.3,29.84,ESE,111,0.0,4.0,1,0.00,,,0.00,Wunderground v.1.15,2013-07-20 02:09:00,
2013-07-19 21:14:00,81.1,-28.5,29.85,ESE,111,0.0,4.0,1,0.00,,,0.00,Wunderground v.1.15,2013-07-20 02:14:00,
2013-07-19 21:19:00,80.8,-28.7,29.85,East,97,0.0,4.0,1,0.00,,,0.00,Wunderground v.1.15,2013-07-20 02:19:00,
2013-07-19 21:24:00,80.7,-28.8,29.85,ESE,115,0.0,4.0,1,0.00,,,0.00,Wunderground v.1.15,2013-07-20 02:24:00,
2013-07-19 21:29:00,80.5,-28.9,29.85,East,100,0.0,4.0,1,0.00,,,0.00,Wunderground v.1.15,2013-07-20 02:29:00,
2013-07-19 21:34:00,80.6,-28.8,29.85,ESE,117,0.0,4.0,1,0.00,,,0.00,Wunderground v.1.15,2013-07-20 02:34:00,
2013-07-19 21:39:00,80.7,-28.8,29.85,East,101,0.0,4.0,1,0.00,,,0.00,Wunderground v.1.15,2013-07-20 02:39:00,
2013-07-19 21:49:00,80.7,-28.8,29.86,SE,127,0.0,4.0,1,0.00,,,0.00,Wunderground v.1.15,2013-07-20 02:49:00,
2013-07-19 21:59:00,80.3,-29.0,29.86,East,93,0.0,4.0,1,0.00,,,0.00,Wunderground v.1.15,2013-07-20 02:59:00,
2013-07-19 22:04:00,80.0,-29.2,29.86,East,93,0.0,4.0,1,0.00,,,0.00,Wunderground v.1.15,2013-07-20 03:04:00,
2013-07-19 22:10:00,79.6,-29.4,29.86,East,93,0.0,4.0,1,0.00,,,0.00,Wunderground v.1.15,2013-07-20 03:10:00,
2013-07-19 22:19:00,78.6,-30.0,29.87,East,93,0.0,4.0,1,0.00,,,0.00,Wunderground v.1.15,2013-07-20 03:19:00,
2013-07-19 22:24:00,78.7,-30.0,29.87,East,86,0.0,4.0,1,0.00,,,0.00,Wunderground v.1.15,2013-07-20 03:24:00,
2013-07-19 22:29:00,78.7,-30.0,29.87,ESE,103,0.0,4.0,1,0.00,,,0.00,Wunderground v.1.15,2013-07-20 03:29:00,
2013-07-19 22:34:00,78.8,-29.9,29.87,East,92,0.0,4.0,1,0.00,,,0.00,Wunderground v.1.15,2013-07-20 03:34:00,
2013-07-19 22:39:00,78.8,-29.9,29.87,East,100,0.0,4.0,1,0.00,,,0.00,Wunderground v.1.15,2013-07-20 03:39:00,
2013-07-19 22:49:00,78.5,-30.1,29.87,ESE,118,0.0,4.0,1,0.00,,,0.00,Wunderground v.1.15,2013-07-20 03:49:00,
2013-07-19 22:54:00,78.3,-30.2,29.87,ESE,103,0.0,4.0,1,0.00,,,0.00,Wunderground v.1.15,2013-07-20 03:54:00,
2013-07-19 22:59:00,78.5,-30.1,29.87,ESE,111,0.0,4.0,1,0.00,,,0.00,Wunderground v.1.15,2013-07-20 03:59:00,
2013-07-19 23:04:00,78.5,-30.1,29.87,ESE,104,0.0,4.0,1,0.00,,,0.00,Wunderground v.1.15,2013-07-20 04:04:00,
2013-07-19 23:10:00,78.5,-30.1,29.87,ENE,70,0.0,4.0,1,0.00,,,0.00,Wunderground v.1.15,2013-07-20 04:10:00,
2013-07-19 23:19:00,78.6,-30.0,29.87,ESE,105,1.0,1.0,1,0.00,,,0.00,Wunderground v.1.15,2013-07-20 04:19:00,
2013-07-19 23:24:00,78.5,-30.1,29.88,East,91,0.0,4.0,1,0.00,,,0.00,Wunderground v.1.15,2013-07-20 04:24:00,
2013-07-19 23:29:00,78.5,-30.1,29.88,East,96,1.0,1.0,1,0.00,,,0.00,Wunderground v.1.15,2013-07-20 04:29:00,
2013-07-19 23:34:00,78.3,-30.2,29.88,East,96,0.0,4.0,1,0.00,,,0.00,Wunderground v.1.15,2013-07-20 04:34:00,
2013-07-19 23:44:00,78.1,-30.3,29.88,SE,131,1.0,4.0,1,0.00,,,0.00,Wunderground v.1.15,2013-07-20 04:44:00,
2013-07-19 23:54:00,77.9,-30.4,29.88,SE,135,0.0,4.0,1,0.00,,,0.00,Wunderground v.1.15,2013-07-20 04:54:00,